Time;durP1;ratioP1;P1;durP2;ratioP2;P2;SDS_P1;SDS_P2;PMS_P1;PMS_P2;Temp;Humidity;BMP_temperature;BMP_pressure;BME280_temperature;BME280_humidity;BME280_pressure;Samples;Min_cycle;Max_cycle;Signal;HPM_P1;HPM_P2
2021/07/17 00:00:34;;;;;;;8.82;4.45;;;;;;;;;;4403045;32;20265;-55
2021/07/17 00:03:02;;;;;;;5.07;4.57;;;;;;;;;;4402622;32;20695;-55
2021/07/17 00:05:28;;;;;;;6.07;4.93;;;;;;;;;;4400831;32;20210;-56
2021/07/17 00:07:53;;;;;;;5.60;4.55;;;;;;;;;;4401095;32;20890;-55
2021/07/17 00:10:21;;;;;;;9.40;4.50;;;;;;;;;;4400807;32;20694;-55
2021/07/17 00:12:48;;;;;;;5.15;4.57;;;;;;;;;;4402394;32;20356;-55
2021/07/17 00:15:15;;;;;;;7.32;5.43;;;;;;;;;;4404780;32;20224;-56
2021/07/17 00:17:42;;;;;;;12.82;7.78;;;;;;;;;;4404079;32;20702;-55
2021/07/17 00:20:11;;;;;;;7.03;5.80;;;;;;;;;;4406353;32;20337;-56
2021/07/17 00:22:36;;;;;;;8.35;6.78;;;;;;;;;;4406183;32;20201;-56
2021/07/17 00:25:04;;;;;;;9.35;6.87;;;;;;;;;;4404993;32;20237;-55
2021/07/17 00:27:30;;;;;;;8.60;6.22;;;;;;;;;;4394788;32;20301;-56
2021/07/17 00:29:55;;;;;;;7.12;5.35;;;;;;;;;;4390830;32;20237;-55
2021/07/17 00:32:21;;;;;;;5.25;4.45;;;;;;;;;;4403010;32;20300;-55
2021/07/17 00:34:46;;;;;;;4.90;4.20;;;;;;;;;;4405990;32;20225;-55
2021/07/17 00:37:12;;;;;;;7.00;4.90;;;;;;;;;;4404861;32;20338;-54
2021/07/17 00:39:37;;;;;;;5.50;3.97;;;;;;;;;;4405724;32;20823;-55
2021/07/17 00:42:03;;;;;;;4.90;4.00;;;;;;;;;;4405927;32;20279;-54
2021/07/17 00:44:28;;;;;;;6.68;4.10;;;;;;;;;;4405556;32;20564;-54
2021/07/17 00:46:55;;;;;;;5.15;4.65;;;;;;;;;;4405516;32;20272;-54
2021/07/17 00:49:27;;;;;;;6.00;4.37;;;;;;;;;;4406061;32;20225;-54
2021/07/17 00:51:53;;;;;;;13.35;4.43;;;;;;;;;;4405934;32;20240;-54
2021/07/17 00:54:19;;;;;;;6.05;3.75;;;;;;;;;;4405983;32;20678;-55
2021/07/17 00:56:46;;;;;;;6.18;3.85;;;;;;;;;;4405912;32;20303;-54
2021/07/17 00:59:14;;;;;;;5.22;3.53;;;;;;;;;;4405773;32;20217;-54
2021/07/17 01:01:40;;;;;;;3.83;3.22;;;;;;;;;;4405408;32;20718;-55
2021/07/17 01:04:06;;;;;;;5.82;3.97;;;;;;;;;;4405625;32;20213;-55
2021/07/17 01:06:31;;;;;;;8.35;4.22;;;;;;;;;;4405756;32;20689;-57
2021/07/17 01:08:57;;;;;;;5.35;4.10;;;;;;;;;;4405584;32;20244;-54
2021/07/17 01:11:23;;;;;;;5.32;4.15;;;;;;;;;;4405923;32;20250;-55
2021/07/17 01:13:48;;;;;;;4.37;3.95;;;;;;;;;;4405780;32;20558;-55
2021/07/17 01:16:14;;;;;;;5.15;3.85;;;;;;;;;;4404697;32;20272;-55
2021/07/17 01:18:39;;;;;;;6.20;4.43;;;;;;;;;;4405806;32;20240;-55
2021/07/17 01:21:07;;;;;;;6.90;4.05;;;;;;;;;;4404782;32;20334;-56
2021/07/17 01:23:33;;;;;;;5.43;3.50;;;;;;;;;;4404959;32;20329;-55
2021/07/17 01:25:58;;;;;;;4.87;3.30;;;;;;;;;;4404083;32;20336;-55
2021/07/17 01:28:24;;;;;;;6.53;4.62;;;;;;;;;;4390543;32;20241;-55
2021/07/17 01:30:51;;;;;;;6.37;4.50;;;;;;;;;;4392506;32;20292;-57
2021/07/17 01:33:16;;;;;;;4.32;3.45;;;;;;;;;;4405253;32;20633;-54
2021/07/17 01:35:43;;;;;;;6.20;4.97;;;;;;;;;;4405423;32;20840;-55
2021/07/17 01:38:09;;;;;;;5.70;3.75;;;;;;;;;;4405285;32;20225;-55
2021/07/17 01:40:34;;;;;;;4.82;4.28;;;;;;;;;;4404952;32;20272;-54
2021/07/17 01:43:00;;;;;;;6.25;3.58;;;;;;;;;;4405596;32;20277;-54
2021/07/17 01:45:30;;;;;;;5.43;4.07;;;;;;;;;;4404999;32;20284;-54
2021/07/17 01:47:55;;;;;;;4.85;3.65;;;;;;;;;;4404060;32;20233;-55
2021/07/17 01:50:23;;;;;;;4.50;3.33;;;;;;;;;;4405378;32;20327;-55
2021/07/17 01:52:50;;;;;;;8.35;3.45;;;;;;;;;;4404960;32;20201;-55
2021/07/17 01:55:15;;;;;;;5.87;4.72;;;;;;;;;;4405459;32;20602;-55
2021/07/17 01:57:42;;;;;;;4.87;4.10;;;;;;;;;;4404758;32;20380;-55
2021/07/17 02:00:09;;;;;;;7.12;4.45;;;;;;;;;;4405357;32;20755;-56
2021/07/17 02:02:34;;;;;;;4.90;3.35;;;;;;;;;;4405373;32;20272;-54
2021/07/17 02:05:04;;;;;;;5.12;4.05;;;;;;;;;;4405281;32;20244;-55
2021/07/17 02:07:31;;;;;;;5.40;4.37;;;;;;;;;;4404687;32;20190;-54
2021/07/17 02:09:56;;;;;;;5.65;3.95;;;;;;;;;;4404784;32;20304;-54
2021/07/17 02:12:22;;;;;;;8.57;4.12;;;;;;;;;;4405334;32;20298;-55
2021/07/17 02:14:49;;;;;;;7.45;3.80;;;;;;;;;;4404982;32;20312;-55
2021/07/17 02:17:15;;;;;;;4.93;3.97;;;;;;;;;;4404795;32;20519;-55
2021/07/17 02:19:40;;;;;;;4.10;3.70;;;;;;;;;;4404906;32;20243;-54
2021/07/17 02:22:06;;;;;;;5.57;4.30;;;;;;;;;;4405268;32;20283;-54
2021/07/17 02:24:32;;;;;;;6.72;4.20;;;;;;;;;;4404834;32;20413;-54
2021/07/17 02:26:58;;;;;;;4.85;3.45;;;;;;;;;;4397106;32;20345;-55
2021/07/17 02:29:24;;;;;;;4.70;3.97;;;;;;;;;;4389833;32;20217;-54
2021/07/17 02:31:49;;;;;;;11.02;5.43;;;;;;;;;;4398176;32;20648;-56
2021/07/17 02:34:15;;;;;;;6.97;5.22;;;;;;;;;;4404471;32;20217;-54
2021/07/17 02:36:41;;;;;;;7.12;6.00;;;;;;;;;;4404312;32;20701;-56
2021/07/17 02:39:08;;;;;;;6.28;5.12;;;;;;;;;;4401266;32;20229;-53
2021/07/17 02:41:35;;;;;;;6.78;4.15;;;;;;;;;;4389493;32;20217;-55
2021/07/17 02:44:00;;;;;;;6.97;3.92;;;;;;;;;;4389399;32;20210;-53
2021/07/17 02:46:26;;;;;;;6.30;4.25;;;;;;;;;;4389058;32;20323;-53
2021/07/17 02:48:51;;;;;;;4.93;4.30;;;;;;;;;;4389307;32;20322;-54
2021/07/17 02:51:17;;;;;;;5.07;3.58;;;;;;;;;;4389208;32;20477;-53
2021/07/17 02:53:42;;;;;;;5.57;4.10;;;;;;;;;;4389531;32;20234;-54
2021/07/17 02:56:08;;;;;;;13.68;4.35;;;;;;;;;;4403369;32;20355;-54
2021/07/17 02:58:33;;;;;;;5.75;4.20;;;;;;;;;;4402999;32;20225;-54
2021/07/17 03:00:59;;;;;;;5.82;3.92;;;;;;;;;;4404560;32;20330;-54
2021/07/17 03:03:25;;;;;;;6.00;3.33;;;;;;;;;;4404390;32;20594;-54
2021/07/17 03:05:51;;;;;;;4.62;3.15;;;;;;;;;;4403179;32;20284;-55
2021/07/17 03:08:21;;;;;;;5.70;3.58;;;;;;;;;;4404404;32;20217;-54
2021/07/17 03:10:47;;;;;;;6.28;3.60;;;;;;;;;;4403861;32;20205;-55
2021/07/17 03:13:12;;;;;;;4.85;3.78;;;;;;;;;;4402218;32;20574;-55
2021/07/17 03:15:38;;;;;;;5.95;3.65;;;;;;;;;;4401115;32;20355;-55
2021/07/17 03:18:03;;;;;;;6.57;3.20;;;;;;;;;;4403363;32;20290;-54
2021/07/17 03:20:29;;;;;;;7.12;3.85;;;;;;;;;;4403592;32;20272;-56
2021/07/17 03:22:55;;;;;;;7.97;4.07;;;;;;;;;;4403347;32;20214;-53
2021/07/17 03:25:20;;;;;;;5.75;3.22;;;;;;;;;;4403818;32;20657;-55
2021/07/17 03:27:46;;;;;;;5.80;3.05;;;;;;;;;;4391907;32;20296;-54
2021/07/17 03:30:12;;;;;;;7.15;3.45;;;;;;;;;;4391505;32;20303;-54
2021/07/17 03:32:38;;;;;;;4.40;3.30;;;;;;;;;;4403302;32;20327;-54
2021/07/17 03:35:05;;;;;;;7.62;3.70;;;;;;;;;;4404150;32;20217;-55
2021/07/17 03:37:30;;;;;;;8.65;3.50;;;;;;;;;;4403795;32;20197;-55
2021/07/17 03:39:56;;;;;;;8.85;3.67;;;;;;;;;;4403040;32;20217;-54
2021/07/17 03:42:22;;;;;;;4.75;3.40;;;;;;;;;;4403898;32;20299;-54
2021/07/17 03:44:47;;;;;;;3.90;3.15;;;;;;;;;;4403752;32;20729;-54
2021/07/17 03:47:13;;;;;;;6.35;4.07;;;;;;;;;;4404457;32;20354;-54
2021/07/17 03:49:38;;;;;;;7.43;3.35;;;;;;;;;;4406923;32;20212;-55
2021/07/17 03:52:04;;;;;;;5.03;3.00;;;;;;;;;;4406686;32;20710;-54
2021/07/17 03:54:30;;;;;;;12.05;4.55;;;;;;;;;;4406922;32;20308;-53
2021/07/17 03:56:55;;;;;;;5.47;2.65;;;;;;;;;;4406848;32;20287;-54
2021/07/17 03:59:21;;;;;;;7.90;3.72;;;;;;;;;;4407019;32;20322;-54
2021/07/17 04:01:46;;;;;;;4.70;3.35;;;;;;;;;;4406496;32;20293;-55
2021/07/17 04:04:13;;;;;;;3.35;2.72;;;;;;;;;;4405383;32;20313;-53
2021/07/17 04:06:39;;;;;;;10.38;4.43;;;;;;;;;;4405527;32;20193;-54
2021/07/17 04:09:04;;;;;;;4.60;3.62;;;;;;;;;;4405343;32;21256;-55
2021/07/17 04:11:30;;;;;;;4.55;3.37;;;;;;;;;;4405920;32;20686;-55
2021/07/17 04:13:56;;;;;;;10.80;3.83;;;;;;;;;;4406239;32;20681;-54
2021/07/17 04:16:22;;;;;;;4.22;3.42;;;;;;;;;;4406098;32;20312;-53
2021/07/17 04:18:47;;;;;;;5.12;3.50;;;;;;;;;;4404528;32;20346;-55
2021/07/17 04:21:13;;;;;;;6.90;3.85;;;;;;;;;;4405787;32;20671;-54
2021/07/17 04:23:39;;;;;;;4.72;3.47;;;;;;;;;;4405691;32;20699;-53
2021/07/17 04:26:05;;;;;;;11.18;4.60;;;;;;;;;;4406234;32;20338;-54
2021/07/17 04:28:30;;;;;;;7.20;3.42;;;;;;;;;;4406457;32;20217;-54
2021/07/17 04:30:56;;;;;;;5.07;3.33;;;;;;;;;;4403093;32;20349;-55
2021/07/17 04:33:21;;;;;;;5.40;3.03;;;;;;;;;;4391555;32;20323;-54
2021/07/17 04:35:47;;;;;;;5.53;3.33;;;;;;;;;;4390932;32;20268;-54
2021/07/17 04:38:12;;;;;;;4.35;2.87;;;;;;;;;;4394104;32;20243;-55
2021/07/17 04:40:38;;;;;;;10.20;5.47;;;;;;;;;;4393112;32;20685;-55
2021/07/17 04:43:04;;;;;;;9.43;4.75;;;;;;;;;;4391355;32;20591;-55
2021/07/17 04:45:29;;;;;;;5.65;3.70;;;;;;;;;;4390732;32;20709;-56
2021/07/17 04:47:54;;;;;;;4.68;3.90;;;;;;;;;;4401876;32;20596;-54
2021/07/17 04:50:20;;;;;;;5.80;3.40;;;;;;;;;;4406569;32;20634;-55
2021/07/17 04:52:46;;;;;;;7.90;4.70;;;;;;;;;;4406433;32;20653;-53
2021/07/17 04:55:11;;;;;;;8.82;5.32;;;;;;;;;;4406192;32;20308;-54
2021/07/17 04:57:37;;;;;;;7.87;4.90;;;;;;;;;;4405761;32;20280;-54
2021/07/17 05:00:04;;;;;;;8.50;5.15;;;;;;;;;;4405992;32;20226;-54
2021/07/17 05:02:29;;;;;;;4.47;4.07;;;;;;;;;;4405606;32;20197;-54
2021/07/17 05:04:55;;;;;;;7.53;4.47;;;;;;;;;;4404520;32;20298;-54
2021/07/17 05:07:20;;;;;;;5.28;4.18;;;;;;;;;;4406107;32;20280;-54
2021/07/17 05:09:46;;;;;;;6.43;4.12;;;;;;;;;;4405665;32;20508;-54
2021/07/17 05:12:11;;;;;;;6.03;4.57;;;;;;;;;;4406305;32;20315;-54
2021/07/17 05:14:37;;;;;;;8.75;4.28;;;;;;;;;;4406001;32;20255;-53
2021/07/17 05:17:02;;;;;;;5.45;4.25;;;;;;;;;;4406196;32;20268;-54
2021/07/17 05:19:28;;;;;;;6.37;4.00;;;;;;;;;;4405666;32;20265;-55
2021/07/17 05:21:53;;;;;;;4.47;3.80;;;;;;;;;;4405885;32;20272;-54
2021/07/17 05:24:19;;;;;;;5.80;4.22;;;;;;;;;;4405703;32;20283;-55
2021/07/17 05:26:44;;;;;;;6.30;4.68;;;;;;;;;;4405320;32;20500;-55
2021/07/17 05:29:10;;;;;;;6.40;4.30;;;;;;;;;;4405688;32;20252;-54
2021/07/17 05:31:35;;;;;;;4.50;3.35;;;;;;;;;;4398146;32;20273;-55
2021/07/17 05:34:01;;;;;;;5.37;3.53;;;;;;;;;;4390272;32;20300;-54
2021/07/17 05:36:26;;;;;;;9.38;3.60;;;;;;;;;;4390150;32;20661;-54
2021/07/17 05:38:52;;;;;;;8.20;3.47;;;;;;;;;;4397339;32;20685;-54
2021/07/17 05:41:17;;;;;;;4.57;3.78;;;;;;;;;;4405443;32;20265;-54
2021/07/17 05:43:43;;;;;;;8.63;3.75;;;;;;;;;;4403766;32;20241;-54
2021/07/17 05:46:08;;;;;;;5.22;3.62;;;;;;;;;;4405610;32;20292;-55
2021/07/17 05:48:34;;;;;;;6.40;3.80;;;;;;;;;;4405370;32;20615;-54
2021/07/17 05:50:59;;;;;;;7.75;3.75;;;;;;;;;;4406282;32;20287;-54
2021/07/17 05:53:25;;;;;;;6.37;3.58;;;;;;;;;;4405763;32;20290;-54
2021/07/17 05:55:50;;;;;;;3.87;3.15;;;;;;;;;;4405546;32;20298;-56
2021/07/17 05:58:16;;;;;;;4.40;3.67;;;;;;;;;;4405251;32;20217;-54
2021/07/17 06:00:42;;;;;;;4.07;3.37;;;;;;;;;;4404976;32;20299;-54
2021/07/17 06:03:09;;;;;;;3.78;2.83;;;;;;;;;;4404966;32;20233;-54
2021/07/17 06:05:35;;;;;;;8.55;3.20;;;;;;;;;;4404951;32;20228;-55
2021/07/17 06:08:00;;;;;;;8.20;3.90;;;;;;;;;;4403360;32;20242;-55
2021/07/17 06:10:26;;;;;;;4.22;3.28;;;;;;;;;;4404519;32;20252;-55
2021/07/17 06:12:51;;;;;;;5.62;3.20;;;;;;;;;;4405054;32;20315;-55
2021/07/17 06:15:17;;;;;;;5.03;3.55;;;;;;;;;;4405222;32;20279;-54
2021/07/17 06:17:43;;;;;;;7.47;3.20;;;;;;;;;;4404691;32;20811;-55
2021/07/17 06:20:09;;;;;;;4.12;2.87;;;;;;;;;;4403240;32;20373;-56
2021/07/17 06:22:34;;;;;;;3.53;2.97;;;;;;;;;;4404538;32;20264;-54
2021/07/17 06:25:01;;;;;;;3.17;2.58;;;;;;;;;;4404987;32;20228;-54
2021/07/17 06:27:26;;;;;;;3.97;2.87;;;;;;;;;;4404941;32;20265;-56
2021/07/17 06:29:51;;;;;;;4.65;3.00;;;;;;;;;;4404805;32;20365;-54
2021/07/17 06:32:18;;;;;;;4.32;3.03;;;;;;;;;;4403216;32;20299;-54
2021/07/17 06:34:44;;;;;;;3.33;2.80;;;;;;;;;;4404510;32;20220;-54
2021/07/17 06:37:10;;;;;;;6.82;2.85;;;;;;;;;;4405204;32;20330;-55
2021/07/17 06:39:35;;;;;;;3.62;2.75;;;;;;;;;;4402214;32;20225;-54
2021/07/17 06:42:01;;;;;;;4.45;3.03;;;;;;;;;;4404209;32;20269;-54
2021/07/17 06:44:26;;;;;;;11.80;3.33;;;;;;;;;;4403615;32;20348;-55
2021/07/17 06:46:51;;;;;;;4.12;2.87;;;;;;;;;;4404077;32;20323;-54
2021/07/17 06:49:17;;;;;;;9.43;3.05;;;;;;;;;;4404325;32;20260;-55
2021/07/17 06:51:42;;;;;;;7.28;3.30;;;;;;;;;;4404556;32;20804;-53
2021/07/17 06:54:08;;;;;;;6.05;2.87;;;;;;;;;;4403872;32;20578;-55
2021/07/17 06:56:33;;;;;;;6.03;3.08;;;;;;;;;;4403786;32;20617;-54
2021/07/17 06:58:58;;;;;;;5.40;2.90;;;;;;;;;;4404495;32;20634;-54
2021/07/17 07:01:24;;;;;;;3.12;2.37;;;;;;;;;;4404423;32;20268;-53
2021/07/17 07:03:50;;;;;;;6.30;2.45;;;;;;;;;;4403681;32;20240;-55
2021/07/17 07:06:15;;;;;;;7.15;2.08;;;;;;;;;;4403613;32;20295;-55
2021/07/17 07:08:41;;;;;;;3.70;2.53;;;;;;;;;;4403420;32;20714;-54
2021/07/17 07:11:06;;;;;;;5.00;3.20;;;;;;;;;;4402063;32;20308;-53
2021/07/17 07:13:33;;;;;;;7.18;3.22;;;;;;;;;;4403411;32;20263;-54
2021/07/17 07:15:58;;;;;;;9.45;3.05;;;;;;;;;;4403913;32;20604;-55
2021/07/17 07:18:24;;;;;;;3.35;2.80;;;;;;;;;;4403081;32;20217;-54
2021/07/17 07:20:49;;;;;;;6.03;2.70;;;;;;;;;;4402985;32;20276;-57
2021/07/17 07:23:15;;;;;;;7.10;3.28;;;;;;;;;;4401962;32;20209;-55
2021/07/17 07:25:41;;;;;;;4.82;2.97;;;;;;;;;;4403145;32;20334;-55
2021/07/17 07:28:06;;;;;;;4.80;2.67;;;;;;;;;;4402834;32;20253;-54
2021/07/17 07:30:32;;;;;;;6.43;3.03;;;;;;;;;;4401622;32;20496;-56
2021/07/17 07:32:58;;;;;;;9.48;2.78;;;;;;;;;;4403137;32;20674;-54
2021/07/17 07:35:24;;;;;;;5.20;2.42;;;;;;;;;;4401824;32;20391;-55
2021/07/17 07:37:51;;;;;;;9.70;3.40;;;;;;;;;;4403143;32;20246;-54
2021/07/17 07:40:19;;;;;;;6.53;3.20;;;;;;;;;;4402456;32;20280;-56
2021/07/17 07:42:45;;;;;;;4.30;2.97;;;;;;;;;;4388418;32;20217;-54
2021/07/17 07:45:12;;;;;;;6.18;3.08;;;;;;;;;;4386234;32;20305;-59
2021/07/17 07:47:37;;;;;;;5.62;3.00;;;;;;;;;;4387220;32;20235;-54
2021/07/17 07:50:05;;;;;;;5.85;3.15;;;;;;;;;;4387576;32;20238;-54
2021/07/17 07:52:30;;;;;;;5.22;3.12;;;;;;;;;;4388192;32;20202;-55
2021/07/17 07:54:56;;;;;;;8.70;2.47;;;;;;;;;;4388293;32;20218;-55
2021/07/17 07:57:21;;;;;;;4.55;2.70;;;;;;;;;;4388048;32;20649;-54
2021/07/17 07:59:47;;;;;;;7.72;2.80;;;;;;;;;;4387371;32;20289;-54
2021/07/17 08:02:12;;;;;;;8.23;3.20;;;;;;;;;;4388378;32;20264;-56
2021/07/17 08:04:38;;;;;;;6.18;3.72;;;;;;;;;;4387728;32;20244;-54
2021/07/17 08:07:03;;;;;;;7.45;2.97;;;;;;;;;;4386628;32;20312;-55
2021/07/17 08:09:29;;;;;;;4.55;3.28;;;;;;;;;;4387419;32;20229;-54
2021/07/17 08:11:55;;;;;;;7.03;3.45;;;;;;;;;;4387634;32;20260;-55
2021/07/17 08:14:21;;;;;;;4.82;2.70;;;;;;;;;;4387237;32;20218;-54
2021/07/17 08:16:47;;;;;;;6.90;3.87;;;;;;;;;;4386184;32;20361;-55
2021/07/17 08:19:12;;;;;;;4.80;3.30;;;;;;;;;;4387718;32;20218;-55
2021/07/17 08:21:38;;;;;;;3.78;3.17;;;;;;;;;;4387479;32;20308;-54
2021/07/17 08:24:04;;;;;;;3.37;2.42;;;;;;;;;;4388061;32;20743;-54
2021/07/17 08:26:30;;;;;;;5.87;3.80;;;;;;;;;;4387608;32;20654;-55
2021/07/17 08:28:56;;;;;;;5.80;3.25;;;;;;;;;;4387974;32;20310;-54
2021/07/17 08:31:21;;;;;;;5.97;3.17;;;;;;;;;;4391160;32;20383;-54
2021/07/17 08:33:47;;;;;;;5.32;3.45;;;;;;;;;;4388466;32;20293;-54
2021/07/17 08:36:12;;;;;;;11.85;3.90;;;;;;;;;;4390477;32;20277;-56
2021/07/17 08:38:38;;;;;;;3.85;3.08;;;;;;;;;;4394914;32;20299;-54
2021/07/17 08:41:09;;;;;;;3.12;2.83;;;;;;;;;;4406514;32;20337;-55
2021/07/17 08:43:35;;;;;;;5.70;3.30;;;;;;;;;;4405479;32;20225;-54
2021/07/17 08:46:00;;;;;;;6.90;4.03;;;;;;;;;;4405831;32;20625;-56
2021/07/17 08:48:26;;;;;;;3.87;2.90;;;;;;;;;;4405938;32;20213;-54
2021/07/17 08:50:52;;;;;;;5.22;3.92;;;;;;;;;;4405553;32;20314;-56
2021/07/17 08:53:18;;;;;;;3.50;2.65;;;;;;;;;;4391295;32;20279;-55
2021/07/17 08:55:44;;;;;;;11.12;3.35;;;;;;;;;;4405668;32;20721;-55
2021/07/17 08:58:09;;;;;;;8.35;3.62;;;;;;;;;;4405630;32;20243;-55
2021/07/17 09:00:41;;;;;;;4.55;3.12;;;;;;;;;;4405059;32;20280;-55
2021/07/17 09:03:09;;;;;;;5.85;3.53;;;;;;;;;;4403431;32;20226;-55
2021/07/17 09:05:42;;;;;;;5.30;3.25;;;;;;;;;;4403299;32;20280;-56
2021/07/17 09:08:08;;;;;;;3.92;3.20;;;;;;;;;;4404799;32;20339;-55
2021/07/17 09:10:38;;;;;;;5.00;4.03;;;;;;;;;;4404502;32;20225;-54
2021/07/17 09:13:25;;;;;;;5.90;3.65;;;;;;;;;;4404591;32;20600;-54
2021/07/17 09:15:50;;;;;;;4.43;3.40;;;;;;;;;;4405440;32;20189;-54
2021/07/17 09:18:21;;;;;;;5.43;3.40;;;;;;;;;;4403953;32;20293;-54
2021/07/17 09:21:01;;;;;;;4.50;3.22;;;;;;;;;;4397611;32;20233;-54
2021/07/17 09:23:28;;;;;;;4.00;3.60;;;;;;;;;;4389841;32;20217;-54
2021/07/17 09:25:54;;;;;;;6.80;3.50;;;;;;;;;;4388903;32;20198;-54
2021/07/17 09:28:29;;;;;;;2.50;2.22;;;;;;;;;;4388930;32;20213;-55
2021/07/17 09:30:59;;;;;;;4.70;3.60;;;;;;;;;;4392490;32;20569;-55
2021/07/17 09:33:26;;;;;;;6.53;3.40;;;;;;;;;;4403236;32;20340;-55
2021/07/17 09:35:54;;;;;;;8.30;4.10;;;;;;;;;;4405319;32;20685;-55
2021/07/17 09:38:22;;;;;;;3.97;3.12;;;;;;;;;;4400037;32;20217;-55
2021/07/17 09:40:54;;;;;;;5.95;2.83;;;;;;;;;;4405186;32;20237;-56
2021/07/17 09:43:34;;;;;;;6.85;3.95;;;;;;;;;;4403917;32;20209;-56
2021/07/17 09:46:01;;;;;;;4.87;3.08;;;;;;;;;;4404333;32;20240;-55
2021/07/17 09:48:32;;;;;;;4.60;3.42;;;;;;;;;;4403929;32;20235;-55
2021/07/17 09:51:00;;;;;;;6.10;2.70;;;;;;;;;;4405385;32;20197;-55
2021/07/17 09:53:45;;;;;;;5.57;2.90;;;;;;;;;;4405191;32;20252;-55
2021/07/17 09:56:17;;;;;;;3.42;2.80;;;;;;;;;;4391454;32;20206;-55
2021/07/17 09:58:44;;;;;;;7.10;3.00;;;;;;;;;;4388971;32;20815;-55
2021/07/17 10:01:18;;;;;;;3.62;2.70;;;;;;;;;;4390017;32;20207;-55
2021/07/17 10:03:45;;;;;;;4.82;2.87;;;;;;;;;;4390200;32;20243;-54
2021/07/17 10:06:25;;;;;;;3.25;2.55;;;;;;;;;;4389567;32;20197;-55
2021/07/17 10:08:50;;;;;;;4.70;2.92;;;;;;;;;;4389822;32;20221;-56
2021/07/17 10:11:22;;;;;;;4.72;2.90;;;;;;;;;;4390112;32;20251;-55
2021/07/17 10:13:48;;;;;;;3.80;2.20;;;;;;;;;;4389620;32;20327;-55
2021/07/17 10:16:16;;;;;;;3.72;2.42;;;;;;;;;;4389967;32;20273;-57
2021/07/17 10:18:41;;;;;;;3.35;2.60;;;;;;;;;;4389104;32;20205;-55
2021/07/17 10:21:08;;;;;;;4.40;2.95;;;;;;;;;;4388458;32;20294;-56
2021/07/17 10:23:33;;;;;;;3.50;2.72;;;;;;;;;;4387352;32;20704;-55
2021/07/17 10:26:00;;;;;;;5.55;3.15;;;;;;;;;;4389744;32;20273;-56
2021/07/17 10:28:26;;;;;;;5.87;3.00;;;;;;;;;;4389846;32;20321;-55
2021/07/17 10:30:52;;;;;;;3.20;2.72;;;;;;;;;;4404648;32;20326;-57
2021/07/17 10:33:18;;;;;;;3.22;2.55;;;;;;;;;;4403828;32;20359;-56
2021/07/17 10:35:46;;;;;;;3.20;2.35;;;;;;;;;;4404382;32;20601;-57
2021/07/17 10:38:13;;;;;;;6.85;3.08;;;;;;;;;;4402464;32;20290;-55
2021/07/17 10:40:39;;;;;;;7.80;2.90;;;;;;;;;;4403447;32;20663;-54
2021/07/17 10:43:06;;;;;;;5.03;2.92;;;;;;;;;;4404334;32;20279;-55
2021/07/17 10:45:36;;;;;;;3.22;2.92;;;;;;;;;;4404462;32;20277;-56
2021/07/17 10:48:03;;;;;;;8.73;2.97;;;;;;;;;;4404391;32;20227;-56
2021/07/17 10:50:33;;;;;;;5.40;2.72;;;;;;;;;;4404239;32;20239;-56
2021/07/17 10:52:58;;;;;;;7.78;3.25;;;;;;;;;;4404109;32;20566;-56
2021/07/17 10:55:28;;;;;;;3.47;2.53;;;;;;;;;;4404338;32;20273;-56
2021/07/17 10:57:56;;;;;;;7.57;2.90;;;;;;;;;;4403575;32;20376;-55
2021/07/17 11:00:50;;;;;;;6.07;3.00;;;;;;;;;;4403393;32;20291;-56
2021/07/17 11:03:16;;;;;;;4.90;2.75;;;;;;;;;;4403232;32;20209;-56
2021/07/17 11:05:41;;;;;;;3.25;2.40;;;;;;;;;;4404355;32;20329;-56
2021/07/17 11:08:33;;;;;;;3.53;2.58;;;;;;;;;;4404012;32;20355;-55
2021/07/17 11:11:00;;;;;;;3.95;2.40;;;;;;;;;;4403107;32;20523;-55
2021/07/17 11:13:36;;;;;;;4.20;2.95;;;;;;;;;;4403269;32;20337;-55
2021/07/17 11:16:03;;;;;;;3.22;2.35;;;;;;;;;;4403433;32;20729;-56
2021/07/17 11:18:36;;;;;;;7.93;2.37;;;;;;;;;;4403416;32;20247;-56
2021/07/17 11:21:04;;;;;;;3.37;2.50;;;;;;;;;;4403955;32;20286;-55
2021/07/17 11:23:35;;;;;;;5.45;2.28;;;;;;;;;;4403198;32;20655;-56
2021/07/17 11:26:05;;;;;;;8.65;2.70;;;;;;;;;;4402875;32;20263;-55
2021/07/17 11:29:00;;;;;;;3.90;2.45;;;;;;;;;;4400674;32;20251;-55
2021/07/17 11:31:28;;;;;;;3.47;1.92;;;;;;;;;;4388184;32;20255;-54
2021/07/17 11:34:20;;;;;;;3.37;2.35;;;;;;;;;;4388115;32;20248;-55
2021/07/17 11:36:51;;;;;;;9.15;3.45;;;;;;;;;;4388443;32;20274;-56
2021/07/17 11:39:19;;;;;;;2.65;2.17;;;;;;;;;;4398194;32;20286;-56
2021/07/17 11:41:44;;;;;;;4.30;3.12;;;;;;;;;;4403913;32;20209;-55
2021/07/17 11:44:10;;;;;;;5.93;3.15;;;;;;;;;;4389246;32;20214;-55
2021/07/17 11:46:35;;;;;;;4.20;2.97;;;;;;;;;;4403165;32;20269;-56
2021/07/17 11:49:08;;;;;;;5.43;3.30;;;;;;;;;;4402433;32;20373;-56
2021/07/17 11:51:48;;;;;;;6.97;2.67;;;;;;;;;;4402890;32;20211;-56
2021/07/17 11:54:26;;;;;;;2.87;1.75;;;;;;;;;;4403325;32;20329;-56
2021/07/17 11:57:17;;;;;;;3.78;2.33;;;;;;;;;;4402993;32;20264;-56
2021/07/17 12:00:08;;;;;;;4.47;2.72;;;;;;;;;;4402899;32;20339;-55
2021/07/17 12:02:35;;;;;;;3.65;2.87;;;;;;;;;;4402105;32;20821;-56
2021/07/17 12:05:08;;;;;;;3.00;2.08;;;;;;;;;;4402900;32;20242;-55
2021/07/17 12:07:35;;;;;;;2.83;2.17;;;;;;;;;;4402914;32;20537;-55
2021/07/17 12:10:05;;;;;;;3.37;2.58;;;;;;;;;;4406197;32;20654;-56
2021/07/17 12:12:34;;;;;;;7.28;2.92;;;;;;;;;;4407163;32;20201;-56
2021/07/17 12:15:05;;;;;;;7.57;2.42;;;;;;;;;;4406637;32;20214;-54
2021/07/17 12:17:31;;;;;;;2.65;2.33;;;;;;;;;;4406498;32;20201;-55
2021/07/17 12:20:09;;;;;;;5.85;2.42;;;;;;;;;;4405887;32;20614;-55
2021/07/17 12:22:35;;;;;;;3.78;2.15;;;;;;;;;;4405641;32;20212;-55
2021/07/17 12:25:16;;;;;;;4.03;2.45;;;;;;;;;;4405767;32;20627;-55
2021/07/17 12:28:08;;;;;;;5.45;2.75;;;;;;;;;;4405457;32;20256;-56
2021/07/17 12:30:35;;;;;;;4.90;1.90;;;;;;;;;;4391080;32;20225;-55
2021/07/17 12:33:14;;;;;;;6.57;2.62;;;;;;;;;;4405570;32;20209;-56
2021/07/17 12:35:40;;;;;;;2.42;2.00;;;;;;;;;;4405663;32;20206;-56
2021/07/17 12:38:18;;;;;;;4.18;2.20;;;;;;;;;;4404845;32;20210;-56
2021/07/17 12:40:48;;;;;;;5.35;2.67;;;;;;;;;;4405395;32;20764;-55
2021/07/17 12:43:20;;;;;;;3.05;2.33;;;;;;;;;;4404765;32;20218;-56
2021/07/17 12:45:54;;;;;;;6.65;3.72;;;;;;;;;;4405898;32;20194;-56
2021/07/17 12:48:20;;;;;;;3.95;2.70;;;;;;;;;;4405317;32;20256;-55
2021/07/17 12:50:45;;;;;;;5.05;2.50;;;;;;;;;;4406319;32;20684;-56
2021/07/17 12:53:12;;;;;;;6.75;2.50;;;;;;;;;;4405692;32;20531;-56
2021/07/17 12:55:42;;;;;;;5.37;2.87;;;;;;;;;;4406014;32;20608;-56
2021/07/17 12:58:10;;;;;;;4.18;2.28;;;;;;;;;;4404607;32;20525;-57
2021/07/17 13:00:43;;;;;;;3.53;2.60;;;;;;;;;;4405213;32;20197;-56
2021/07/17 13:03:10;;;;;;;5.43;2.53;;;;;;;;;;4405026;32;20289;-56
2021/07/17 13:05:49;;;;;;;10.15;3.00;;;;;;;;;;4405012;32;20198;-56
2021/07/17 13:08:27;;;;;;;3.42;2.30;;;;;;;;;;4405471;32;20519;-56
2021/07/17 13:10:54;;;;;;;3.67;2.35;;;;;;;;;;4404757;32;20664;-56
2021/07/17 13:13:34;;;;;;;6.45;3.08;;;;;;;;;;4404394;32;20512;-55
2021/07/17 13:16:02;;;;;;;3.50;2.37;;;;;;;;;;4404664;32;20523;-55
2021/07/17 13:18:30;;;;;;;7.55;2.60;;;;;;;;;;4404171;32;20221;-56
2021/07/17 13:21:08;;;;;;;2.87;2.45;;;;;;;;;;4403470;32;20566;-55
2021/07/17 13:23:57;;;;;;;4.05;2.42;;;;;;;;;;4404946;32;20213;-55
2021/07/17 13:26:28;;;;;;;5.18;2.40;;;;;;;;;;4404167;32;20293;-56
2021/07/17 13:28:56;;;;;;;8.90;2.55;;;;;;;;;;4399681;32;20214;-56
2021/07/17 13:31:32;;;;;;;6.93;3.08;;;;;;;;;;4389319;32;20363;-56
2021/07/17 13:34:16;;;;;;;4.22;2.55;;;;;;;;;;4389399;32;20250;-55
2021/07/17 13:37:00;;;;;;;9.48;2.65;;;;;;;;;;4389183;32;20360;-55
2021/07/17 13:39:28;;;;;;;2.87;2.12;;;;;;;;;;4400834;32;20214;-55
2021/07/17 13:42:30;;;;;;;3.35;2.60;;;;;;;;;;4404575;32;20557;-55
2021/07/17 13:45:13;;;;;;;9.50;3.28;;;;;;;;;;4402199;32;20282;-55
2021/07/17 13:47:41;;;;;;;4.78;3.28;;;;;;;;;;4404562;32;20186;-56
2021/07/17 13:50:19;;;;;;;6.50;3.12;;;;;;;;;;4403058;32;20265;-56
2021/07/17 13:52:59;;;;;;;5.32;3.05;;;;;;;;;;4404305;32;20276;-55
2021/07/17 13:55:26;;;;;;;5.87;2.97;;;;;;;;;;4404812;32;20529;-56
2021/07/17 13:58:21;;;;;;;3.30;1.65;;;;;;;;;;4404260;32;20272;-55
2021/07/17 14:00:52;;;;;;;2.95;2.17;;;;;;;;;;4404276;32;20229;-55
2021/07/17 14:03:20;;;;;;;7.22;1.65;;;;;;;;;;4404082;32;20225;-56
2021/07/17 14:05:51;;;;;;;3.33;2.10;;;;;;;;;;4404662;32;20273;-56
2021/07/17 14:08:17;;;;;;;7.03;2.15;;;;;;;;;;4404597;32;20252;-55
2021/07/17 14:10:42;;;;;;;3.35;1.80;;;;;;;;;;4404420;32;20693;-55
2021/07/17 14:13:08;;;;;;;5.22;2.35;;;;;;;;;;4404524;32;20282;-56
2021/07/17 14:15:34;;;;;;;7.60;2.08;;;;;;;;;;4404018;32;20302;-57
2021/07/17 14:18:00;;;;;;;4.15;2.45;;;;;;;;;;4403897;32;20300;-56
2021/07/17 14:20:26;;;;;;;2.22;2.03;;;;;;;;;;4403906;32;20210;-56
2021/07/17 14:22:52;;;;;;;3.78;1.98;;;;;;;;;;4404731;32;20349;-55
2021/07/17 14:25:17;;;;;;;3.50;2.37;;;;;;;;;;4404120;32;20310;-55
2021/07/17 14:27:43;;;;;;;2.97;1.60;;;;;;;;;;4403922;32;20303;-55
2021/07/17 14:30:09;;;;;;;7.12;2.58;;;;;;;;;;4403273;32;20444;-57
2021/07/17 14:32:34;;;;;;;4.30;2.25;;;;;;;;;;4403825;32;20363;-56
2021/07/17 14:35:00;;;;;;;3.12;2.60;;;;;;;;;;4403679;32;20217;-56
2021/07/17 14:37:25;;;;;;;4.72;2.28;;;;;;;;;;4403491;32;20273;-56
2021/07/17 14:39:51;;;;;;;2.33;2.00;;;;;;;;;;4403707;32;20267;-56
2021/07/17 14:42:16;;;;;;;2.67;1.98;;;;;;;;;;4403591;32;20696;-56
2021/07/17 14:44:42;;;;;;;8.48;2.20;;;;;;;;;;4404128;32;20284;-56
2021/07/17 14:47:08;;;;;;;4.72;1.95;;;;;;;;;;4402800;32;20335;-55